createdAt,value
2022-09-07T00:00:50.048Z,1.98
2022-09-07T00:04:32.191Z,1.90
2022-09-07T00:08:15.811Z,2.47
2022-09-07T00:11:57.830Z,2.00
2022-09-07T00:15:40.524Z,1.48
2022-09-07T00:19:22.942Z,2.15
2022-09-07T00:23:04.995Z,2.13
2022-09-07T00:26:47.066Z,2.65
2022-09-07T00:30:29.035Z,2.30
2022-09-07T00:34:11.118Z,2.45
2022-09-07T00:37:53.106Z,2.35
2022-09-07T00:41:35.136Z,2.40
2022-09-07T00:45:21.335Z,2.90
2022-09-07T00:49:16.557Z,2.10
2022-09-07T00:53:05.129Z,2.65
2022-09-07T00:56:49.142Z,2.60
2022-09-07T01:00:31.663Z,3.05
2022-09-07T01:04:15.185Z,3.22
2022-09-07T01:07:58.379Z,2.97
2022-09-07T01:11:41.054Z,3.03
2022-09-07T01:15:27.727Z,2.33
2022-09-07T01:19:35.948Z,2.75
2022-09-07T01:23:39.503Z,2.13
2022-09-07T01:27:36.998Z,2.58
2022-09-07T01:36:18.181Z,2.97
2022-09-07T01:40:05.992Z,2.10
2022-09-07T01:44:15.311Z,2.80
2022-09-07T01:48:01.310Z,2.17
2022-09-07T01:51:47.718Z,2.28
2022-09-07T01:55:59.302Z,2.63
2022-09-07T01:59:48.867Z,2.30
2022-09-07T02:03:37.043Z,2.57
2022-09-07T02:08:01.404Z,2.70
2022-09-07T02:11:48.529Z,2.60
2022-09-07T02:15:47.286Z,2.97
2022-09-07T02:19:35.879Z,2.67
2022-09-07T02:23:22.630Z,2.75
2022-09-07T02:27:27.233Z,2.63
2022-09-07T02:31:09.695Z,2.60
2022-09-07T02:34:51.813Z,3.05
2022-09-07T02:38:35.245Z,2.70
2022-09-07T02:42:17.246Z,2.85
2022-09-07T02:46:36.880Z,2.78
2022-09-07T02:50:47.776Z,3.17
2022-09-07T02:55:02.447Z,2.85
2022-09-07T02:59:03.268Z,2.78
2022-09-07T03:07:00.583Z,3.45
2022-09-07T03:10:44.021Z,3.45
2022-09-07T03:14:27.067Z,3.15
2022-09-07T03:18:09.307Z,2.90
2022-09-07T03:21:51.380Z,2.90
2022-09-07T03:25:33.444Z,2.95
2022-09-07T03:29:16.271Z,2.47
2022-09-07T03:32:58.352Z,2.90
2022-09-07T03:36:40.646Z,1.70
2022-09-07T03:49:04.289Z,2.55
2022-09-07T03:52:46.297Z,2.50
2022-09-07T03:56:29.630Z,3.47
2022-09-07T04:00:12.426Z,2.70
2022-09-07T04:04:02.014Z,2.90
2022-09-07T04:12:47.365Z,2.90
2022-09-07T04:16:29.972Z,2.47
2022-09-07T04:20:12.108Z,2.50
2022-09-07T04:23:54.511Z,2.30
2022-09-07T04:27:36.603Z,2.55
2022-09-07T04:31:19.380Z,3.13
2022-09-07T04:35:01.474Z,3.33
2022-09-07T04:38:43.951Z,2.78
2022-09-07T04:42:26.032Z,4.05
2022-09-07T04:46:19.983Z,3.47
2022-09-07T04:50:02.059Z,4.00
2022-09-07T04:53:47.235Z,3.17
2022-09-07T04:57:29.257Z,3.17
2022-09-07T05:01:14.278Z,2.60
2022-09-07T05:04:59.431Z,2.80
2022-09-07T05:08:47.640Z,2.53
2022-09-07T05:12:29.708Z,3.38
2022-09-07T05:16:17.859Z,3.03
2022-09-07T05:19:59.897Z,3.20
2022-09-07T05:23:43.641Z,3.58
2022-09-07T05:27:26.135Z,3.40
2022-09-07T05:34:58.479Z,3.45
2022-09-07T05:38:40.928Z,2.78
2022-09-07T05:43:25.862Z,2.45
2022-09-07T05:47:07.976Z,2.80
2022-09-07T05:50:53.459Z,2.83
2022-09-07T05:54:35.624Z,3.00
2022-09-07T05:58:18.501Z,2.45
2022-09-07T06:02:00.672Z,2.22
2022-09-07T06:05:42.967Z,3.90
2022-09-07T06:09:28.520Z,3.42
2022-09-07T06:13:12.432Z,2.83
2022-09-07T06:16:54.475Z,3.10
2022-09-07T06:20:36.601Z,2.60
2022-09-07T06:24:18.677Z,3.75
2022-09-07T06:28:00.746Z,3.33
2022-09-07T06:35:55.948Z,3.17
2022-09-07T06:39:38.084Z,3.70
2022-09-07T06:43:20.345Z,2.65
2022-09-07T06:47:03.182Z,2.35
2022-09-07T06:50:54.619Z,2.33
2022-09-07T06:58:42.338Z,2.22
2022-09-07T07:02:24.548Z,2.58
2022-09-07T07:06:07.113Z,2.70
2022-09-07T07:09:50.272Z,2.45
2022-09-07T07:13:32.539Z,1.95
2022-09-07T07:17:14.724Z,2.40
2022-09-07T07:20:56.727Z,2.13
2022-09-07T07:24:38.789Z,2.40
2022-09-07T07:32:29.539Z,2.47
2022-09-07T07:36:14.424Z,2.20
2022-09-07T07:44:00.640Z,2.42
2022-09-07T07:47:42.962Z,2.40
2022-09-07T07:51:25.066Z,2.38
2022-09-07T07:59:15.055Z,2.53
2022-09-07T08:03:03.947Z,2.38
2022-09-07T08:06:46.031Z,2.30
2022-09-07T08:10:30.518Z,2.50
2022-09-07T08:14:12.474Z,2.40
2022-09-07T08:17:54.458Z,2.15
2022-09-07T08:21:36.578Z,2.25
2022-09-07T08:25:19.323Z,2.65
2022-09-07T08:29:01.356Z,2.20
2022-09-07T08:32:43.436Z,2.47
2022-09-07T08:36:25.473Z,2.08
2022-09-07T08:40:08.577Z,2.33
2022-09-07T08:44:02.842Z,2.30
2022-09-07T08:47:50.708Z,1.90
2022-09-07T08:51:47.149Z,2.42
2022-09-07T08:55:33.627Z,2.05
2022-09-07T08:59:22.753Z,2.28
2022-09-07T09:07:16.725Z,2.58
2022-09-07T09:11:04.281Z,2.33
2022-09-07T09:15:03.561Z,2.40
2022-09-07T09:19:02.726Z,2.00
2022-09-07T09:22:45.297Z,1.88
2022-09-07T09:26:29.136Z,1.55
2022-09-07T09:30:17.273Z,1.52
2022-09-07T09:34:25.298Z,2.08
2022-09-07T09:38:50.953Z,1.83
2022-09-07T09:42:35.477Z,1.80
2022-09-07T09:46:27.360Z,2.47
2022-09-07T09:54:37.374Z,1.98
2022-09-07T10:06:38.268Z,1.60
2022-09-07T10:10:20.520Z,1.83
2022-09-07T10:14:04.515Z,2.45
2022-09-07T10:17:49.974Z,1.98
2022-09-07T10:21:32.602Z,2.35
2022-09-07T10:25:39.860Z,1.90
2022-09-07T10:29:31.451Z,1.67
2022-09-07T10:33:32.250Z,2.08
2022-09-07T10:37:42.472Z,2.45
2022-09-07T10:41:45.095Z,2.10
2022-09-07T10:45:45.988Z,1.50
2022-09-07T11:07:36.335Z,1.50
2022-09-07T11:12:07.568Z,2.03
2022-09-07T11:15:54.994Z,1.88
2022-09-07T11:19:49.430Z,1.70
2022-09-07T11:24:11.367Z,1.77
2022-09-07T11:27:59.602Z,2.00
2022-09-07T11:31:54.126Z,1.70
2022-09-07T11:35:51.792Z,1.95
2022-09-07T11:39:54.167Z,1.65
2022-09-07T11:43:41.993Z,1.45
2022-09-07T11:47:45.815Z,1.80
2022-09-07T11:51:46.314Z,1.58
2022-09-07T11:55:34.109Z,1.48
2022-09-07T11:59:19.186Z,1.60
2022-09-07T12:03:13.310Z,1.83
2022-09-07T12:07:27.459Z,1.73
2022-09-07T12:11:28.466Z,1.60
2022-09-07T12:15:36.385Z,1.45
2022-09-07T12:19:28.568Z,1.58
2022-09-07T12:23:19.690Z,1.83
2022-09-07T12:27:03.139Z,1.35
2022-09-07T12:31:04.637Z,1.60
2022-09-07T12:34:54.859Z,1.40
2022-09-07T12:39:02.800Z,2.03
2022-09-07T12:42:47.153Z,1.92
2022-09-07T12:46:34.729Z,1.73
2022-09-07T12:50:51.057Z,1.77
2022-09-07T12:54:42.912Z,1.58
2022-09-07T12:58:41.756Z,1.98
2022-09-07T13:02:43.442Z,1.63
2022-09-07T13:10:42.738Z,1.45
2022-09-07T13:14:27.763Z,1.90
2022-09-07T13:18:41.222Z,1.52
2022-09-07T13:22:37.389Z,1.75
2022-09-07T13:26:59.109Z,1.55
2022-09-07T13:30:56.139Z,1.90
2022-09-07T13:34:50.077Z,1.80
2022-09-07T13:38:35.321Z,1.75
2022-09-07T13:42:40.425Z,1.70
2022-09-07T13:46:27.904Z,1.63
2022-09-07T13:50:38.581Z,2.03
2022-09-07T13:54:27.622Z,1.50
2022-09-07T13:58:28.099Z,2.05
2022-09-07T14:02:29.421Z,1.55
2022-09-07T14:06:26.352Z,1.80
2022-09-07T14:10:14.728Z,1.60
2022-09-07T14:14:17.054Z,1.50
2022-09-07T14:18:31.749Z,1.60
2022-09-07T14:22:18.443Z,1.60
2022-09-07T14:26:25.785Z,2.08
2022-09-07T14:30:33.567Z,1.90
2022-09-07T14:34:20.084Z,2.17
2022-09-07T14:39:03.980Z,1.45
2022-09-07T14:42:25.693Z,1.88
2022-09-07T14:46:26.594Z,1.60
2022-09-07T14:50:25.773Z,1.65
2022-09-07T14:54:10.168Z,1.42
2022-09-07T14:58:16.640Z,1.63
2022-09-07T15:02:32.966Z,1.80
2022-09-07T15:11:32.979Z,1.27
2022-09-07T15:14:52.516Z,1.48
2022-09-07T15:18:56.080Z,1.70
2022-09-07T15:22:38.599Z,1.33
2022-09-07T15:30:34.505Z,1.50
2022-09-07T15:34:22.346Z,1.30
2022-09-07T15:46:16.207Z,1.45
2022-09-07T15:49:58.308Z,1.42
2022-09-07T15:57:56.871Z,1.75
2022-09-07T16:01:52.223Z,1.60
2022-09-07T16:05:35.028Z,1.50
2022-09-07T16:09:17.516Z,2.15
2022-09-07T16:13:02.231Z,1.33
2022-09-07T16:20:47.952Z,1.50
2022-09-07T16:24:35.666Z,1.02
2022-09-07T16:28:17.634Z,1.40
2022-09-07T16:36:04.610Z,1.33
2022-09-07T16:39:46.572Z,1.45
2022-09-07T16:43:28.666Z,1.10
2022-09-07T16:47:12.855Z,1.88
2022-09-07T16:51:01.066Z,1.30
2022-09-07T16:54:44.277Z,2.33
2022-09-07T16:58:36.535Z,1.48
2022-09-07T17:02:19.291Z,1.80
2022-09-07T17:06:02.273Z,1.95
2022-09-07T17:09:44.297Z,1.50
2022-09-07T17:13:26.575Z,1.70
2022-09-07T17:17:09.260Z,1.30
2022-09-07T17:20:56.665Z,1.90
2022-09-07T17:24:40.430Z,1.80
2022-09-07T17:28:22.384Z,2.03
2022-09-07T17:36:12.292Z,1.70
2022-09-07T17:39:54.456Z,1.88
2022-09-07T17:43:45.414Z,2.03
2022-09-07T17:47:30.410Z,1.40
2022-09-07T17:51:13.258Z,1.52
2022-09-07T17:54:56.131Z,1.80
2022-09-07T17:58:39.715Z,1.58
2022-09-07T18:02:21.842Z,1.80
2022-09-07T18:06:04.141Z,1.60
2022-09-07T18:09:47.131Z,1.63
2022-09-07T18:13:35.920Z,1.83
2022-09-07T18:17:19.210Z,1.77
2022-09-07T18:21:01.233Z,2.45
2022-09-07T18:24:43.259Z,1.85
2022-09-07T18:32:27.466Z,1.77
2022-09-07T18:36:11.808Z,1.48
2022-09-07T18:39:54.585Z,1.42
2022-09-07T18:43:39.101Z,1.15
2022-09-07T18:47:27.541Z,1.20
2022-09-07T18:51:10.837Z,1.38
2022-09-07T18:54:58.798Z,1.52
2022-09-07T18:58:41.975Z,1.10
2022-09-07T19:02:24.098Z,1.50
2022-09-07T19:06:10.083Z,1.10
2022-09-07T19:09:52.136Z,1.60
2022-09-07T19:13:35.377Z,1.75
2022-09-07T19:17:18.004Z,2.10
2022-09-07T19:21:08.498Z,1.60
2022-09-07T19:24:50.743Z,1.70
2022-09-07T19:28:33.236Z,1.40
2022-09-07T19:32:15.196Z,1.40
2022-09-07T19:35:57.306Z,1.40
2022-09-07T19:39:39.988Z,1.30
2022-09-07T19:43:22.097Z,1.20
2022-09-07T19:47:04.244Z,1.77
2022-09-07T19:50:47.007Z,1.42
2022-09-07T19:54:28.979Z,1.90
2022-09-07T19:58:12.717Z,1.52
2022-09-07T20:01:54.686Z,1.50
2022-09-07T20:05:42.845Z,2.13
2022-09-07T20:09:25.900Z,1.83
2022-09-07T20:13:08.203Z,1.50
2022-09-07T20:16:50.405Z,1.80
2022-09-07T20:20:34.635Z,1.60
2022-09-07T20:24:22.237Z,1.55
2022-09-07T20:28:04.234Z,1.38
2022-09-07T20:31:46.996Z,1.67
2022-09-07T20:35:31.167Z,1.55
2022-09-07T20:39:16.369Z,1.55
2022-09-07T20:42:58.984Z,1.55
2022-09-07T20:46:41.058Z,1.95
2022-09-07T20:50:23.112Z,1.50
2022-09-07T20:54:20.450Z,2.17
2022-09-07T20:58:03.303Z,4.55
2022-09-07T21:01:46.777Z,1.77
2022-09-07T21:05:28.999Z,2.55
2022-09-07T21:09:11.001Z,1.90
2022-09-07T21:13:33.982Z,1.77
2022-09-07T21:17:16.028Z,2.00
2022-09-07T21:21:18.745Z,2.35
2022-09-07T21:25:02.530Z,1.83
2022-09-07T21:28:44.649Z,2.35
2022-09-07T21:32:26.697Z,1.98
2022-09-07T21:36:11.487Z,1.90
2022-09-07T21:39:53.680Z,2.00
2022-09-07T21:43:35.833Z,1.70
2022-09-07T21:52:25.880Z,2.50
2022-09-07T21:56:11.719Z,2.13
2022-09-07T21:59:53.684Z,2.03
2022-09-07T22:03:35.704Z,2.92
2022-09-07T22:07:17.701Z,2.03
2022-09-07T22:11:12.066Z,2.10
2022-09-07T22:14:54.142Z,1.75
2022-09-07T22:18:38.048Z,2.05
2022-09-07T22:22:20.025Z,1.90
2022-09-07T22:26:02.077Z,3.25
2022-09-07T22:29:43.984Z,1.85
2022-09-07T22:33:26.156Z,2.08
2022-09-07T22:37:08.109Z,2.20
2022-09-07T22:40:50.243Z,1.98
2022-09-07T22:44:32.281Z,1.90
2022-09-07T22:48:14.231Z,1.42
2022-09-07T22:51:56.176Z,2.15
2022-09-07T22:55:39.376Z,1.75
2022-09-07T22:59:21.543Z,1.80
2022-09-07T23:03:05.303Z,2.47
2022-09-07T23:06:47.381Z,1.92
2022-09-07T23:10:29.421Z,2.15
2022-09-07T23:14:17.241Z,2.10
2022-09-07T23:23:02.381Z,2.15
2022-09-07T23:26:44.411Z,1.60
2022-09-07T23:30:26.443Z,1.70
2022-09-07T23:34:08.802Z,2.08
2022-09-07T23:37:50.704Z,2.90
2022-09-07T23:41:32.910Z,2.05
2022-09-07T23:45:15.368Z,2.42
2022-09-07T23:48:57.394Z,2.00
2022-09-07T23:52:39.403Z,2.50
2022-09-07T23:56:22.552Z,1.90
